createdAt,value
2019-01-18T00:00:50.730Z,44.4
2019-01-18T00:01:50.711Z,44.4
2019-01-18T00:02:50.387Z,44.42
2019-01-18T00:03:51.138Z,44.41
2019-01-18T00:04:50.445Z,44.42
2019-01-18T00:05:50.573Z,44.35
2019-01-18T00:06:50.745Z,44.42
2019-01-18T00:07:50.471Z,44.38
2019-01-18T00:08:50.562Z,44.37
2019-01-18T00:09:50.447Z,44.4
2019-01-18T00:10:50.784Z,44.41
2019-01-18T00:11:50.330Z,44.41
2019-01-18T00:12:50.744Z,44.42
2019-01-18T00:13:50.816Z,44.41
2019-01-18T00:14:50.921Z,44.39
2019-01-18T00:15:50.912Z,44.39
2019-01-18T00:16:50.447Z,44.39
2019-01-18T00:17:50.881Z,44.43
2019-01-18T00:18:50.415Z,44.35
2019-01-18T00:19:50.411Z,44.4
2019-01-18T00:20:50.840Z,44.39
2019-01-18T00:21:50.977Z,44.35
2019-01-18T00:22:50.905Z,44.39
2019-01-18T00:23:50.873Z,44.37
2019-01-18T00:24:50.813Z,44.4
2019-01-18T00:25:50.464Z,44.4
2019-01-18T00:26:50.518Z,44.37
2019-01-18T00:27:50.476Z,44.4
2019-01-18T00:28:50.917Z,44.38
2019-01-18T00:29:50.477Z,44.42
2019-01-18T00:30:50.792Z,44.37
2019-01-18T00:31:50.732Z,44.36
2019-01-18T00:32:50.322Z,44.38
2019-01-18T00:33:50.775Z,44.36
2019-01-18T00:34:50.794Z,44.36
2019-01-18T00:35:50.335Z,44.37
2019-01-18T00:36:50.750Z,44.36
2019-01-18T00:37:50.789Z,44.36
2019-01-18T00:38:50.421Z,44.36
2019-01-18T00:39:50.774Z,44.35
2019-01-18T00:40:50.795Z,44.37
2019-01-18T00:41:50.439Z,44.34
2019-01-18T00:42:50.661Z,44.36
2019-01-18T00:43:50.496Z,44.33
2019-01-18T00:44:50.413Z,44.34
2019-01-18T00:45:50.774Z,44.34
2019-01-18T00:46:53.351Z,44.3
2019-01-18T00:47:51.051Z,44.34
2019-01-18T00:48:50.767Z,44.32
2019-01-18T00:49:51.155Z,44.35
2019-01-18T00:50:50.964Z,44.36
2019-01-18T00:51:51.093Z,44.33
2019-01-18T00:52:50.524Z,44.37
2019-01-18T00:53:50.479Z,44.35
2019-01-18T00:54:50.795Z,44.29
2019-01-18T00:55:51.281Z,44.37
2019-01-18T00:56:50.375Z,44.36
2019-01-18T00:57:50.504Z,44.34
2019-01-18T00:58:50.636Z,44.31
2019-01-18T00:59:50.435Z,44.34
2019-01-18T01:00:50.862Z,44.35
2019-01-18T01:01:50.397Z,44.31
2019-01-18T01:02:51.007Z,44.29
2019-01-18T01:03:51.095Z,44.33
2019-01-18T01:04:51.380Z,44.31
2019-01-18T01:05:50.554Z,44.34
2019-01-18T01:06:50.774Z,44.33
2019-01-18T01:07:51.329Z,44.33
2019-01-18T01:08:50.900Z,44.33
2019-01-18T01:09:52.058Z,44.33
2019-01-18T01:10:50.459Z,44.35
2019-01-18T01:11:50.694Z,44.33
2019-01-18T01:12:50.588Z,44.31
2019-01-18T01:13:50.676Z,44.31
2019-01-18T01:14:50.529Z,44.3
2019-01-18T01:15:50.582Z,44.32
2019-01-18T01:16:50.451Z,44.33
2019-01-18T01:17:50.868Z,44.37
2019-01-18T01:18:50.296Z,44.34
2019-01-18T01:19:50.697Z,44.31
2019-01-18T01:20:50.574Z,44.32
2019-01-18T01:21:51.179Z,44.34
2019-01-18T01:22:50.368Z,44.31
2019-01-18T01:23:51.159Z,44.34
2019-01-18T01:24:50.748Z,44.32
2019-01-18T01:25:50.687Z,44.33
2019-01-18T01:26:50.497Z,44.28
2019-01-18T01:27:50.731Z,44.31
2019-01-18T01:28:50.396Z,44.32
2019-01-18T01:29:50.234Z,44.3
2019-01-18T01:30:50.349Z,44.29
2019-01-18T01:31:50.658Z,44.32
2019-01-18T01:32:50.991Z,44.34
2019-01-18T01:33:50.399Z,44.35
2019-01-18T01:34:50.532Z,44.32
2019-01-18T01:35:50.780Z,44.29
2019-01-18T01:36:50.796Z,44.31
2019-01-18T01:37:50.373Z,44.34
2019-01-18T01:38:50.817Z,44.34
2019-01-18T01:39:50.851Z,44.35
2019-01-18T01:40:50.438Z,44.34
2019-01-18T01:41:50.724Z,44.31
2019-01-18T01:42:50.525Z,44.29
2019-01-18T01:43:50.719Z,44.27
2019-01-18T01:44:50.513Z,44.3
2019-01-18T01:45:50.755Z,44.27
2019-01-18T01:46:50.702Z,44.27
2019-01-18T01:47:50.506Z,44.31
2019-01-18T01:48:50.391Z,44.3
2019-01-18T01:49:50.653Z,44.32
2019-01-18T01:50:51.038Z,44.33
2019-01-18T01:51:50.357Z,44.31
2019-01-18T01:52:50.332Z,44.26
2019-01-18T01:53:50.383Z,44.27
2019-01-18T01:54:50.392Z,44.28
2019-01-18T01:55:50.420Z,44.27
2019-01-18T01:56:50.571Z,44.27
2019-01-18T01:57:50.251Z,44.28
2019-01-18T01:58:50.684Z,44.26
2019-01-18T01:59:50.588Z,44.27
2019-01-18T02:00:50.274Z,44.27
2019-01-18T02:01:50.429Z,44.28
2019-01-18T02:02:50.409Z,44.27
2019-01-18T02:03:51.235Z,44.28
2019-01-18T02:04:52.399Z,44.25
2019-01-18T02:05:50.794Z,44.27
2019-01-18T02:06:50.709Z,44.29
2019-01-18T02:07:50.576Z,44.29
2019-01-18T02:08:50.510Z,44.3
2019-01-18T02:09:50.522Z,44.27
2019-01-18T02:10:50.724Z,44.25
2019-01-18T02:11:50.458Z,44.27
2019-01-18T02:12:50.290Z,44.29
2019-01-18T02:13:50.383Z,44.28
2019-01-18T02:14:50.439Z,44.27
2019-01-18T02:15:50.354Z,44.32
2019-01-18T02:16:50.514Z,44.31
2019-01-18T02:17:50.435Z,44.25
2019-01-18T02:18:50.480Z,44.31
2019-01-18T02:19:50.377Z,44.32
2019-01-18T02:20:50.449Z,44.3
2019-01-18T02:21:50.421Z,44.3
2019-01-18T02:22:50.778Z,44.27
2019-01-18T02:23:50.724Z,44.29
2019-01-18T02:24:50.392Z,44.27
2019-01-18T02:25:50.513Z,44.31
2019-01-18T02:26:54.315Z,44.31
2019-01-18T02:27:50.356Z,44.31
2019-01-18T02:28:50.439Z,44.33
2019-01-18T02:29:57.130Z,44.31
2019-01-18T02:30:50.404Z,44.3
2019-01-18T02:31:50.425Z,44.3
2019-01-18T02:32:50.466Z,44.34
2019-01-18T02:33:50.802Z,44.3
2019-01-18T02:34:50.727Z,44.31
2019-01-18T02:35:53.078Z,44.28
2019-01-18T02:36:50.352Z,44.32
2019-01-18T02:37:50.994Z,44.33
2019-01-18T02:38:50.828Z,44.32
2019-01-18T02:39:50.485Z,44.31
2019-01-18T02:40:50.997Z,44.32
2019-01-18T02:41:51.136Z,44.32
2019-01-18T02:42:51.003Z,44.36
2019-01-18T02:43:50.874Z,44.33
2019-01-18T02:44:50.892Z,44.31
2019-01-18T02:45:50.841Z,44.33
2019-01-18T02:46:52.117Z,44.33
2019-01-18T02:47:51.109Z,44.31
2019-01-18T02:48:50.533Z,44.31
2019-01-18T02:49:50.250Z,44.31
2019-01-18T02:50:50.370Z,44.35
2019-01-18T02:51:50.628Z,44.33
2019-01-18T02:52:50.541Z,44.35
2019-01-18T02:53:50.528Z,44.38
2019-01-18T02:54:50.736Z,44.36
2019-01-18T02:55:50.761Z,44.34
2019-01-18T02:56:50.749Z,44.35
2019-01-18T02:57:50.589Z,44.33
2019-01-18T02:58:50.562Z,44.32
2019-01-18T02:59:50.872Z,44.3
2019-01-18T03:00:50.531Z,44.31
2019-01-18T03:01:51.984Z,44.26
2019-01-18T03:02:50.472Z,44.32
2019-01-18T03:03:51.117Z,44.31
2019-01-18T03:04:50.398Z,44.36
2019-01-18T03:05:51.593Z,44.32
2019-01-18T03:06:50.505Z,44.34
2019-01-18T03:07:50.729Z,44.31
2019-01-18T03:08:50.870Z,44.34
2019-01-18T03:09:50.663Z,44.33
2019-01-18T03:10:50.468Z,44.3
2019-01-18T03:11:50.699Z,44.3
2019-01-18T03:12:53.108Z,44.31
2019-01-18T03:13:50.463Z,44.32
2019-01-18T03:14:50.679Z,44.26
2019-01-18T03:15:50.380Z,44.34
2019-01-18T03:16:51.010Z,44.31
2019-01-18T03:17:50.496Z,44.3
2019-01-18T03:18:50.277Z,44.33
2019-01-18T03:19:50.771Z,44.29
2019-01-18T03:20:52.376Z,44.29
2019-01-18T03:21:50.411Z,44.32
2019-01-18T03:22:50.727Z,44.3
2019-01-18T03:23:50.923Z,44.32
2019-01-18T03:24:50.571Z,44.33
2019-01-18T03:25:50.241Z,44.32
2019-01-18T03:26:50.530Z,44.27
2019-01-18T03:27:50.385Z,44.29
2019-01-18T03:28:50.874Z,44.29
2019-01-18T03:29:50.370Z,44.34
2019-01-18T03:30:50.625Z,44.29
2019-01-18T03:31:51.250Z,44.29
2019-01-18T03:32:50.785Z,44.29
2019-01-18T03:33:50.637Z,44.32
2019-01-18T03:34:50.479Z,44.29
2019-01-18T03:35:50.558Z,44.29
2019-01-18T03:36:50.245Z,44.32
2019-01-18T03:37:50.706Z,44.26
2019-01-18T03:38:51.865Z,44.3
2019-01-18T03:39:50.655Z,44.3
2019-01-18T03:40:50.619Z,44.31
2019-01-18T03:41:50.800Z,44.29
2019-01-18T03:42:50.659Z,44.24
2019-01-18T03:43:50.566Z,44.31
2019-01-18T03:44:50.295Z,44.3
2019-01-18T03:45:50.669Z,44.34
2019-01-18T03:46:50.475Z,44.33
2019-01-18T03:47:50.430Z,44.29
2019-01-18T03:48:50.531Z,44.27
2019-01-18T03:49:50.798Z,44.27
2019-01-18T03:50:50.517Z,44.31
2019-01-18T03:51:50.607Z,44.27
2019-01-18T03:52:50.804Z,44.32
2019-01-18T03:53:50.197Z,44.32
2019-01-18T03:54:50.369Z,44.31
2019-01-18T03:55:50.380Z,44.26
2019-01-18T03:56:50.233Z,44.28
2019-01-18T03:57:50.407Z,44.27
2019-01-18T03:58:50.538Z,44.27
2019-01-18T03:59:50.764Z,44.29
2019-01-18T04:00:50.336Z,44.31
2019-01-18T04:01:50.694Z,44.33
2019-01-18T04:02:50.449Z,44.29
2019-01-18T04:03:50.421Z,44.28
2019-01-18T04:04:50.478Z,44.28
2019-01-18T04:05:50.586Z,44.27
2019-01-18T04:06:50.735Z,44.26
2019-01-18T04:07:50.724Z,44.3
2019-01-18T04:08:50.365Z,44.23
2019-01-18T04:09:50.559Z,44.23
2019-01-18T04:10:51.005Z,44.27
2019-01-18T04:11:50.670Z,44.29
2019-01-18T04:12:50.468Z,44.27
2019-01-18T04:13:50.739Z,44.27
2019-01-18T04:14:50.252Z,44.26
2019-01-18T04:15:50.242Z,44.24
2019-01-18T04:16:50.634Z,44.23
2019-01-18T04:17:50.733Z,44.3
2019-01-18T04:18:50.857Z,44.26
2019-01-18T04:19:50.529Z,44.26
2019-01-18T04:20:52.192Z,44.27
2019-01-18T04:21:50.838Z,44.23
2019-01-18T04:22:51.510Z,44.25
2019-01-18T04:23:50.617Z,44.26
2019-01-18T04:24:51.057Z,44.28
2019-01-18T04:25:50.312Z,44.27
2019-01-18T04:26:50.391Z,44.24
2019-01-18T04:27:50.490Z,44.3
2019-01-18T04:28:50.413Z,44.21
2019-01-18T04:29:51.030Z,44.29
2019-01-18T04:30:50.428Z,44.26
2019-01-18T04:31:50.467Z,44.25
2019-01-18T04:32:50.365Z,44.23
2019-01-18T04:33:50.980Z,44.24
2019-01-18T04:34:50.555Z,44.25
2019-01-18T04:35:50.498Z,44.24
2019-01-18T04:36:50.710Z,44.27
2019-01-18T04:37:51.441Z,44.25
2019-01-18T04:38:50.976Z,44.24
2019-01-18T04:39:50.837Z,44.29
2019-01-18T04:40:50.406Z,44.3
2019-01-18T04:41:50.253Z,44.26
2019-01-18T04:42:50.779Z,44.26
2019-01-18T04:43:50.811Z,44.26
2019-01-18T04:44:50.782Z,44.26
2019-01-18T04:45:50.918Z,44.3
2019-01-18T04:46:50.525Z,44.33
2019-01-18T04:47:51.060Z,44.34
2019-01-18T04:48:50.947Z,44.35
2019-01-18T04:49:50.768Z,44.34
2019-01-18T04:50:50.366Z,44.3
2019-01-18T04:51:50.480Z,44.34
2019-01-18T04:52:50.272Z,44.34
2019-01-18T04:53:51.611Z,44.27
2019-01-18T04:54:50.208Z,44.28
2019-01-18T04:55:50.270Z,44.26
2019-01-18T04:56:50.404Z,44.26
2019-01-18T04:57:51.250Z,44.23
2019-01-18T04:58:50.563Z,44.27
2019-01-18T04:59:51.033Z,44.25
2019-01-18T05:00:51.381Z,44.25
2019-01-18T05:01:50.531Z,44.32
2019-01-18T05:02:50.269Z,44.28
2019-01-18T05:03:52.371Z,44.18
2019-01-18T05:04:50.237Z,44.26
2019-01-18T05:05:50.613Z,44.25
2019-01-18T05:06:50.461Z,44.22
2019-01-18T05:07:50.371Z,44.23
2019-01-18T05:08:50.459Z,44.15
2019-01-18T05:09:51.403Z,44.19
2019-01-18T05:10:51.199Z,44.21
2019-01-18T05:11:50.571Z,44.17
2019-01-18T05:12:50.995Z,44.13
2019-01-18T05:13:50.361Z,44.09
2019-01-18T05:14:50.744Z,44.06
2019-01-18T05:15:51.156Z,44.01
2019-01-18T05:16:50.368Z,44.01
2019-01-18T05:17:50.746Z,43.98
2019-01-18T05:18:51.032Z,44.05
2019-01-18T05:19:51.093Z,43.98
2019-01-18T05:20:50.429Z,43.97
2019-01-18T05:21:50.488Z,43.94
2019-01-18T05:22:50.367Z,43.94
2019-01-18T05:23:50.937Z,43.94
2019-01-18T05:24:50.478Z,43.93
2019-01-18T05:25:50.410Z,43.91
2019-01-18T05:26:50.902Z,43.92
2019-01-18T05:27:50.189Z,43.96
2019-01-18T05:28:50.290Z,43.94
2019-01-18T05:29:50.312Z,43.95
2019-01-18T05:30:50.142Z,43.93
2019-01-18T05:31:51.031Z,43.92
2019-01-18T05:32:50.804Z,43.85
2019-01-18T05:33:51.384Z,43.92
2019-01-18T05:34:50.271Z,43.86
2019-01-18T05:35:50.824Z,43.91
2019-01-18T05:36:50.902Z,43.9
2019-01-18T05:37:50.353Z,43.87
2019-01-18T05:38:50.352Z,43.94
2019-01-18T05:39:50.446Z,43.9
2019-01-18T05:40:50.522Z,43.93
2019-01-18T05:41:50.320Z,43.85
2019-01-18T05:42:50.720Z,43.93
2019-01-18T05:43:50.270Z,43.86
2019-01-18T05:44:50.409Z,43.88
2019-01-18T05:45:50.483Z,43.92
2019-01-18T05:46:50.318Z,43.87
2019-01-18T05:47:50.327Z,43.88
2019-01-18T05:48:50.576Z,43.88
2019-01-18T05:49:52.182Z,43.88
2019-01-18T05:50:50.461Z,43.88
2019-01-18T05:51:50.374Z,43.87
2019-01-18T05:52:50.362Z,43.86
2019-01-18T05:53:50.243Z,43.9
2019-01-18T05:54:50.446Z,43.89
2019-01-18T05:55:50.316Z,43.89
2019-01-18T05:56:50.580Z,43.84
2019-01-18T05:57:50.367Z,43.86
2019-01-18T05:58:50.407Z,43.87
2019-01-18T05:59:50.569Z,43.83
2019-01-18T06:00:56.482Z,43.88
2019-01-18T06:01:50.458Z,43.87
2019-01-18T06:02:50.589Z,43.85
2019-01-18T06:03:50.926Z,43.86
2019-01-18T06:04:51.228Z,43.84
2019-01-18T06:05:50.944Z,43.87
2019-01-18T06:06:50.619Z,43.84
2019-01-18T06:07:50.464Z,43.83
2019-01-18T06:08:50.347Z,43.83
2019-01-18T06:09:50.157Z,43.83
2019-01-18T06:10:50.330Z,43.8
2019-01-18T06:11:50.603Z,43.8
2019-01-18T06:12:50.351Z,43.82
2019-01-18T06:13:51.691Z,43.76
2019-01-18T06:14:50.832Z,43.82
2019-01-18T06:15:50.797Z,43.81
2019-01-18T06:16:50.395Z,43.79
2019-01-18T06:17:50.557Z,43.86
2019-01-18T06:18:50.683Z,43.82
2019-01-18T06:19:50.732Z,43.78
2019-01-18T06:20:51.264Z,43.76
2019-01-18T06:21:50.268Z,43.78
2019-01-18T06:22:50.451Z,43.75
2019-01-18T06:23:50.759Z,43.81
2019-01-18T06:24:50.325Z,43.77
2019-01-18T06:25:50.494Z,43.77
2019-01-18T06:26:50.619Z,43.72
2019-01-18T06:27:50.785Z,43.77
2019-01-18T06:28:50.970Z,43.74
2019-01-18T06:29:50.576Z,43.75
2019-01-18T06:30:50.393Z,43.72
2019-01-18T06:31:50.369Z,43.71
2019-01-18T06:32:50.859Z,43.71
2019-01-18T06:33:50.192Z,43.72
2019-01-18T06:34:52.303Z,43.66
2019-01-18T06:35:53.087Z,43.7
2019-01-18T06:36:50.554Z,43.65
2019-01-18T06:37:50.824Z,43.7
2019-01-18T06:38:50.681Z,43.7
2019-01-18T06:39:50.474Z,43.69
2019-01-18T06:40:51.319Z,43.71
2019-01-18T06:41:51.894Z,43.65
2019-01-18T06:42:50.503Z,43.68
2019-01-18T06:43:50.456Z,43.68
2019-01-18T06:44:50.829Z,43.69
2019-01-18T06:45:50.715Z,43.63
2019-01-18T06:46:51.200Z,43.62
2019-01-18T06:47:50.622Z,43.63
2019-01-18T06:48:51.011Z,43.61
2019-01-18T06:49:50.705Z,43.7
2019-01-18T06:50:50.356Z,41.16
2019-01-18T06:51:50.660Z,40.44
2019-01-18T06:52:50.865Z,41.75
2019-01-18T06:53:50.876Z,42.65
2019-01-18T06:54:50.320Z,41.43
2019-01-18T06:55:50.775Z,40.84
2019-01-18T06:56:50.468Z,41.66
2019-01-18T06:57:50.523Z,42.04
2019-01-18T06:58:50.521Z,42.32
2019-01-18T06:59:50.238Z,42.36
2019-01-18T07:00:51.141Z,42.75
2019-01-18T07:01:52.127Z,42.79
2019-01-18T07:02:50.540Z,42.91
2019-01-18T07:03:50.372Z,42.98
2019-01-18T07:04:50.694Z,42.98
2019-01-18T07:05:52.205Z,43.09
2019-01-18T07:06:50.287Z,43.22
2019-01-18T07:07:50.957Z,43.22
2019-01-18T07:08:50.502Z,43.19
2019-01-18T07:09:50.584Z,43.15
2019-01-18T07:10:50.909Z,43.2
2019-01-18T07:11:50.179Z,43.3
2019-01-18T07:12:50.322Z,43.21
2019-01-18T07:13:52.114Z,43.25
2019-01-18T07:14:50.424Z,43.23
2019-01-18T07:15:50.440Z,43.3
2019-01-18T07:16:51.139Z,43.51
2019-01-18T07:17:50.499Z,43.57
2019-01-18T07:18:50.318Z,43.75
2019-01-18T07:19:50.385Z,43.8
2019-01-18T07:20:50.523Z,43.76
2019-01-18T07:21:50.752Z,43.77
2019-01-18T07:22:50.400Z,43.52
2019-01-18T07:23:50.209Z,43.66
2019-01-18T07:24:50.300Z,43.64
2019-01-18T07:25:50.411Z,43.61
2019-01-18T07:26:50.278Z,43.73
2019-01-18T07:27:50.411Z,43.65
2019-01-18T07:28:52.034Z,43.8
2019-01-18T07:29:50.202Z,43.86
2019-01-18T07:30:50.143Z,43.68
2019-01-18T07:31:50.372Z,43.97
2019-01-18T07:32:50.537Z,43.78
2019-01-18T07:33:50.556Z,43.91
2019-01-18T07:34:50.621Z,43.92
2019-01-18T07:35:50.647Z,43.77
2019-01-18T07:36:50.450Z,43.92
2019-01-18T07:37:50.397Z,43.89
2019-01-18T07:38:50.204Z,43.88
2019-01-18T07:39:50.392Z,43.93
2019-01-18T07:40:50.561Z,43.63
2019-01-18T07:41:50.536Z,43.88
2019-01-18T07:42:50.627Z,43.87
2019-01-18T07:43:50.414Z,43.91
2019-01-18T07:44:50.847Z,44.03
2019-01-18T07:45:50.338Z,44.06
2019-01-18T07:46:50.622Z,44.14
2019-01-18T07:47:51.160Z,44.15
2019-01-18T07:48:51.124Z,44.48
2019-01-18T07:49:50.356Z,44.41
2019-01-18T07:50:50.397Z,44.36
2019-01-18T07:51:50.558Z,44.18
2019-01-18T07:52:50.690Z,44.2
2019-01-18T07:53:50.922Z,44.62
2019-01-18T07:54:50.176Z,43.98
2019-01-18T07:55:50.610Z,44.07
2019-01-18T07:56:50.490Z,44.07
2019-01-18T07:57:50.350Z,43.84
2019-01-18T07:58:50.381Z,43.84
2019-01-18T07:59:50.950Z,43.85
2019-01-18T08:00:50.575Z,44.03
2019-01-18T08:01:51.319Z,43.7
2019-01-18T08:02:50.703Z,43.61
2019-01-18T08:03:50.739Z,43.81
2019-01-18T08:04:50.370Z,43.72
2019-01-18T08:05:51.754Z,43.85
2019-01-18T08:06:50.387Z,43.61
2019-01-18T08:07:50.760Z,43.71
2019-01-18T08:08:50.709Z,43.64
2019-01-18T08:09:50.364Z,43.75
2019-01-18T08:10:50.649Z,43.51
2019-01-18T08:11:50.587Z,43.52
2019-01-18T08:12:51.571Z,43.63
2019-01-18T08:13:50.594Z,43.66
2019-01-18T08:14:50.636Z,42.65
2019-01-18T08:15:50.142Z,42.49
2019-01-18T08:16:50.657Z,42.38
2019-01-18T08:17:50.642Z,41.54
2019-01-18T08:18:50.421Z,41.36
2019-01-18T08:19:51.376Z,41.03
2019-01-18T08:20:50.439Z,42
2019-01-18T08:21:50.470Z,41.96
2019-01-18T08:22:50.315Z,42.57
2019-01-18T08:23:50.382Z,42.24
2019-01-18T08:24:50.981Z,42.59
2019-01-18T08:25:51.193Z,42.8
2019-01-18T08:26:50.790Z,42.91
2019-01-18T08:27:51.335Z,42.85
2019-01-18T08:28:51.169Z,42.4
2019-01-18T08:29:50.892Z,42.4
2019-01-18T08:30:50.490Z,42.18
2019-01-18T08:31:50.766Z,42.21
2019-01-18T08:32:50.237Z,42.45
2019-01-18T08:33:50.450Z,42.84
2019-01-18T08:34:50.153Z,42.83
2019-01-18T08:35:50.363Z,42.97
2019-01-18T08:36:50.474Z,42.69
2019-01-18T08:37:50.586Z,42.75
2019-01-18T08:38:50.476Z,43.14
2019-01-18T08:39:52.345Z,42.36
2019-01-18T08:40:50.310Z,43.04
2019-01-18T08:41:50.690Z,42.74
2019-01-18T08:42:51.337Z,42.96
2019-01-18T08:43:52.171Z,42.86
2019-01-18T08:44:50.655Z,42.99
2019-01-18T08:45:50.844Z,42.91
2019-01-18T08:46:50.389Z,43.05
2019-01-18T08:47:50.779Z,42.96
2019-01-18T08:48:50.281Z,43.07
2019-01-18T08:49:50.473Z,43.06
2019-01-18T08:50:50.384Z,43
2019-01-18T08:51:50.872Z,43.16
2019-01-18T08:52:50.358Z,43.12
2019-01-18T08:53:50.322Z,43.27
2019-01-18T08:54:50.411Z,43.3
2019-01-18T08:55:50.403Z,43.07
2019-01-18T08:56:50.263Z,43.05
2019-01-18T08:57:50.092Z,43.16
2019-01-18T08:58:50.823Z,43.22
2019-01-18T08:59:50.753Z,43.25
2019-01-18T09:00:52.096Z,43.22
2019-01-18T09:01:50.928Z,43.39
2019-01-18T09:02:52.255Z,43.17
2019-01-18T09:03:51.061Z,43.08
2019-01-18T09:04:50.312Z,43.32
2019-01-18T09:05:50.691Z,43.23
2019-01-18T09:06:50.372Z,43.1
2019-01-18T09:07:50.501Z,43.17
2019-01-18T09:08:50.321Z,43.34
2019-01-18T09:09:26.037Z,43.54
2019-01-18T09:10:50.627Z,43.85
2019-01-18T09:11:50.766Z,43.15
2019-01-18T09:12:50.841Z,42.97
2019-01-18T09:13:50.404Z,42.95
2019-01-18T09:14:50.778Z,42.94
2019-01-18T09:15:50.833Z,42.85
2019-01-18T09:16:50.690Z,42.85
2019-01-18T09:17:50.815Z,42.73
2019-01-18T09:18:50.803Z,42.63
2019-01-18T09:19:50.471Z,42.71
2019-01-18T09:20:50.648Z,42.75
2019-01-18T09:21:50.800Z,42.71
2019-01-18T09:22:50.503Z,42.73
2019-01-18T09:23:50.435Z,42.75
2019-01-18T09:24:50.617Z,42.71
2019-01-18T09:25:50.854Z,42.72
2019-01-18T09:26:50.852Z,42.72
2019-01-18T09:27:50.949Z,42.69
2019-01-18T09:28:50.806Z,42.71
2019-01-18T09:29:50.786Z,42.73
2019-01-18T09:30:50.879Z,42.76
2019-01-18T09:31:51.102Z,42.77
2019-01-18T09:32:50.979Z,42.65
2019-01-18T09:33:50.920Z,42.71
2019-01-18T09:34:52.292Z,42.71
2019-01-18T09:35:50.486Z,42.7
2019-01-18T09:36:51.349Z,42.64
2019-01-18T09:37:51.027Z,42.7
2019-01-18T09:38:51.264Z,42.59
2019-01-18T09:39:51.069Z,42.6
2019-01-18T09:40:51.164Z,42.53
2019-01-18T09:41:51.910Z,42.58
2019-01-18T09:42:50.602Z,42.59
2019-01-18T09:43:51.010Z,42.55
2019-01-18T09:44:50.567Z,42.58
2019-01-18T09:45:50.634Z,42.63
2019-01-18T09:46:50.646Z,42.61
2019-01-18T09:47:50.722Z,42.55
2019-01-18T09:48:50.564Z,42.53
2019-01-18T09:49:50.515Z,42.53
2019-01-18T09:50:50.932Z,42.49
2019-01-18T09:51:50.971Z,42.51
2019-01-18T09:52:51.465Z,42.47
2019-01-18T09:53:50.477Z,42.45
2019-01-18T09:54:50.454Z,42.42
2019-01-18T09:55:50.751Z,42.43
2019-01-18T09:56:50.536Z,42.42
2019-01-18T09:57:51.410Z,42.37
2019-01-18T09:58:50.977Z,42.45
2019-01-18T09:59:50.822Z,43.64
2019-01-18T10:00:50.494Z,42.45
2019-01-18T10:01:52.485Z,42.28
2019-01-18T10:02:50.375Z,42.36
2019-01-18T10:03:52.409Z,42.32
2019-01-18T10:04:50.681Z,42.54
2019-01-18T10:05:50.463Z,42.6
2019-01-18T10:06:50.639Z,42.61
2019-01-18T10:07:50.809Z,42.32
2019-01-18T10:08:50.385Z,42.39
2019-01-18T10:09:51.328Z,42.3
2019-01-18T10:10:51.224Z,42.35
2019-01-18T10:11:50.520Z,42.45
2019-01-18T10:12:51.854Z,42.31
2019-01-18T10:13:50.418Z,42.73
2019-01-18T10:14:50.597Z,42.26
2019-01-18T10:15:50.423Z,42.13
2019-01-18T10:16:50.725Z,42.16
2019-01-18T10:17:51.025Z,42.14
2019-01-18T10:18:51.029Z,42.26
2019-01-18T10:19:50.430Z,42.25
2019-01-18T10:20:50.622Z,42.21
2019-01-18T10:21:52.344Z,42.22
2019-01-18T10:22:51.097Z,42.24
2019-01-18T10:23:50.772Z,42.28
2019-01-18T10:24:50.756Z,42.19
2019-01-18T10:25:50.811Z,42.21
2019-01-18T10:26:50.574Z,42.28
2019-01-18T10:27:50.491Z,42.21
2019-01-18T10:28:50.929Z,42.26
2019-01-18T10:29:50.467Z,42.25
2019-01-18T10:30:50.663Z,42.22
2019-01-18T10:31:56.609Z,42.27
2019-01-18T10:32:50.422Z,42.26
2019-01-18T10:33:50.535Z,42.23
2019-01-18T10:34:50.564Z,42.24
2019-01-18T10:35:50.658Z,42.22
2019-01-18T10:36:50.523Z,42.2
2019-01-18T10:37:50.369Z,42.28
2019-01-18T10:38:50.543Z,42.29
2019-01-18T10:39:50.829Z,42.25
2019-01-18T10:40:50.834Z,42.25
2019-01-18T10:41:51.024Z,42.08
2019-01-18T10:42:50.830Z,42.24
2019-01-18T10:43:52.403Z,42.11
2019-01-18T10:44:50.650Z,41.81
2019-01-18T10:45:52.584Z,41.85
2019-01-18T10:46:51.491Z,41.69
2019-01-18T10:47:50.604Z,41.87
2019-01-18T10:48:51.084Z,41.94
2019-01-18T10:49:50.686Z,41.88
2019-01-18T10:50:50.904Z,41.88
2019-01-18T10:51:51.361Z,41.88
2019-01-18T10:52:50.486Z,41.94
2019-01-18T10:53:50.557Z,41.93
2019-01-18T10:54:50.652Z,41.99
2019-01-18T10:55:50.423Z,42.03
2019-01-18T10:56:50.588Z,42.06
2019-01-18T10:57:50.665Z,41.95
2019-01-18T10:58:50.846Z,42.03
2019-01-18T10:59:50.846Z,41.97
2019-01-18T11:00:50.754Z,42.11
2019-01-18T11:01:50.433Z,42.17
2019-01-18T11:02:50.799Z,42.24
2019-01-18T11:03:50.771Z,42.2
2019-01-18T11:04:50.662Z,42.24
2019-01-18T11:05:51.084Z,42.25
2019-01-18T11:06:51.095Z,42.28
2019-01-18T11:07:50.802Z,42.33
2019-01-18T11:08:50.961Z,42.28
2019-01-18T11:09:50.907Z,42.24
2019-01-18T11:10:50.722Z,42.2
2019-01-18T11:11:50.749Z,42.21
2019-01-18T11:12:50.938Z,42.24
2019-01-18T11:13:50.679Z,42.23
2019-01-18T11:14:50.553Z,42.26
2019-01-18T11:15:51.148Z,42.37
2019-01-18T11:16:50.739Z,42.29
2019-01-18T11:17:50.409Z,42.26
2019-01-18T11:18:50.633Z,42.34
2019-01-18T11:19:50.488Z,42.3
2019-01-18T11:20:51.455Z,42.26
2019-01-18T11:21:50.934Z,42.39
2019-01-18T11:22:50.735Z,42.32
2019-01-18T11:23:50.709Z,42.34
2019-01-18T11:24:50.505Z,42.31
2019-01-18T11:25:50.689Z,42.3
2019-01-18T11:26:50.503Z,42.31
2019-01-18T11:27:51.446Z,42.25
2019-01-18T11:28:50.908Z,42.23
2019-01-18T11:29:50.765Z,42.26
2019-01-18T11:30:50.585Z,42.27
2019-01-18T11:31:51.889Z,42.29
2019-01-18T11:32:50.763Z,42.31
2019-01-18T11:33:50.790Z,42.26
2019-01-18T11:34:51.000Z,42.26
2019-01-18T11:35:50.379Z,42.22
2019-01-18T11:36:50.949Z,42.22
2019-01-18T11:37:50.533Z,42.3
2019-01-18T11:38:50.816Z,42.23
2019-01-18T11:39:50.828Z,42.19
2019-01-18T11:40:50.852Z,42.16
2019-01-18T11:41:50.780Z,42.17
2019-01-18T11:42:50.888Z,42.15
2019-01-18T11:43:50.863Z,42.59
2019-01-18T11:44:50.649Z,42.19
2019-01-18T11:45:50.991Z,42
2019-01-18T11:46:51.049Z,41.97
2019-01-18T11:47:50.805Z,41.93
2019-01-18T11:48:50.927Z,41.98
2019-01-18T11:49:50.508Z,42.03
2019-01-18T11:50:50.590Z,42.12
2019-01-18T11:51:50.775Z,42.1
2019-01-18T11:52:50.376Z,42.47
2019-01-18T11:53:50.825Z,42.35
2019-01-18T11:54:50.663Z,42.24
2019-01-18T11:55:50.726Z,42.25
2019-01-18T11:56:50.824Z,42.13
2019-01-18T11:57:51.562Z,42.06
2019-01-18T11:58:50.856Z,42.15
2019-01-18T11:59:52.445Z,42.19
2019-01-18T12:00:50.874Z,42.26
2019-01-18T12:01:51.571Z,42.26
2019-01-18T12:02:50.432Z,42.39
2019-01-18T12:03:51.011Z,42.28
2019-01-18T12:04:51.293Z,42.29
2019-01-18T12:05:51.006Z,42.27
2019-01-18T12:06:50.650Z,42.24
2019-01-18T12:07:50.576Z,42.18
2019-01-18T12:08:50.688Z,42.22
2019-01-18T12:09:50.836Z,42.16
2019-01-18T12:10:51.194Z,42.17
2019-01-18T12:11:53.463Z,42.14
2019-01-18T12:12:50.466Z,42.13
2019-01-18T12:13:50.989Z,42.08
2019-01-18T12:14:50.783Z,42.19
2019-01-18T12:15:50.720Z,42.19
2019-01-18T12:16:50.815Z,42.6
2019-01-18T12:17:50.434Z,42.31
2019-01-18T12:18:50.797Z,42.37
2019-01-18T12:19:50.369Z,41.56
2019-01-18T12:20:50.341Z,41.52
2019-01-18T12:21:50.342Z,41.75
2019-01-18T12:22:50.742Z,41.95
2019-01-18T12:23:50.737Z,42.03
2019-01-18T12:24:50.761Z,42.03
2019-01-18T12:25:50.759Z,41.93
2019-01-18T12:26:50.760Z,41.93
2019-01-18T12:27:50.496Z,41.99
2019-01-18T12:28:51.747Z,42.01
2019-01-18T12:29:50.681Z,42.08
2019-01-18T12:30:50.856Z,42
2019-01-18T12:31:50.812Z,42.01
2019-01-18T12:32:50.700Z,42
2019-01-18T12:33:50.814Z,42
2019-01-18T12:34:50.807Z,41.97
2019-01-18T12:35:50.517Z,41.97
2019-01-18T12:36:59.285Z,41.99
2019-01-18T12:37:50.567Z,41.97
2019-01-18T12:38:50.516Z,42.09
2019-01-18T12:39:50.890Z,41.46
2019-01-18T12:40:50.905Z,41.62
2019-01-18T12:41:50.517Z,41.49
2019-01-18T12:42:50.783Z,41.75
2019-01-18T12:43:50.809Z,41.77
2019-01-18T12:44:50.764Z,41.74
2019-01-18T12:45:50.320Z,41.98
2019-01-18T12:47:00.473Z,41.83
2019-01-18T12:48:00.362Z,41.85
2019-01-18T12:49:00.285Z,41.81
2019-01-18T12:50:00.531Z,41.71
2019-01-18T12:51:00.466Z,42.65
2019-01-18T12:52:00.418Z,41.37
2019-01-18T12:53:00.449Z,41.59
2019-01-18T12:54:00.419Z,41.6
2019-01-18T12:55:00.541Z,41.66
2019-01-18T12:56:00.156Z,41.67